createdAt,value
2024-01-16T00:02:18.365Z,96653.00
2024-01-16T00:07:41.560Z,96659.00
2024-01-16T00:13:03.092Z,96668.00
2024-01-16T00:18:25.211Z,96672.00
2024-01-16T00:23:46.709Z,96683.00
2024-01-16T00:29:08.444Z,96681.00
2024-01-16T00:34:30.174Z,96673.00
2024-01-16T00:39:51.629Z,96692.00
2024-01-16T00:45:13.387Z,96687.00
2024-01-16T00:50:34.791Z,96682.00
2024-01-16T00:55:56.377Z,96694.00
2024-01-16T01:01:17.994Z,96692.00
2024-01-16T01:06:39.911Z,96704.00
2024-01-16T01:12:01.400Z,96727.00
2024-01-16T01:17:23.154Z,96734.00
2024-01-16T01:22:45.978Z,96747.00
2024-01-16T01:28:07.324Z,96744.00
2024-01-16T01:33:29.000Z,96766.00
2024-01-16T01:38:50.486Z,96767.00
2024-01-16T01:44:17.662Z,96768.00
2024-01-16T01:49:39.759Z,96774.00
2024-01-16T01:55:03.058Z,96774.00
2024-01-16T02:00:24.916Z,96781.00
2024-01-16T02:05:47.308Z,96790.00
2024-01-16T02:11:09.189Z,96784.00
2024-01-16T02:16:39.976Z,96794.00
2024-01-16T02:22:05.036Z,96806.00
2024-01-16T02:27:26.581Z,96814.00
2024-01-16T02:32:48.297Z,96820.00
2024-01-16T02:38:09.968Z,96822.00
2024-01-16T02:43:31.799Z,96821.00
2024-01-16T02:48:53.470Z,96833.00
2024-01-16T02:54:15.502Z,96839.00
2024-01-16T02:59:37.275Z,96839.00
2024-01-16T03:04:58.713Z,96838.00
2024-01-16T03:10:20.315Z,96846.00
2024-01-16T03:15:42.274Z,96847.00
2024-01-16T03:21:04.582Z,96843.00
2024-01-16T03:26:25.971Z,96864.00
2024-01-16T03:31:47.427Z,96861.00
2024-01-16T03:37:08.942Z,96875.00
2024-01-16T03:42:30.491Z,96881.00
2024-01-16T03:47:52.198Z,96878.00
2024-01-16T03:53:14.168Z,96885.00
2024-01-16T03:58:35.984Z,96889.00
2024-01-16T04:03:57.594Z,96878.00
2024-01-16T04:09:18.967Z,96906.00
2024-01-16T04:14:41.406Z,96902.00
2024-01-16T04:20:03.176Z,96909.00
2024-01-16T04:25:24.693Z,96910.00
2024-01-16T04:30:46.439Z,96918.00
2024-01-16T04:36:11.267Z,96914.00
2024-01-16T04:41:32.846Z,96927.00
2024-01-16T04:46:55.881Z,96945.00
2024-01-16T04:52:20.253Z,96943.00
2024-01-16T04:57:42.383Z,96953.00
2024-01-16T05:03:06.619Z,96958.00
2024-01-16T05:08:28.273Z,96943.00
2024-01-16T05:13:49.766Z,96962.00
2024-01-16T05:19:11.448Z,96964.00
2024-01-16T05:24:32.910Z,96971.00
2024-01-16T05:29:54.483Z,96988.00
2024-01-16T05:35:16.071Z,96981.00
2024-01-16T05:40:37.472Z,96999.00
2024-01-16T05:45:59.210Z,96993.00
2024-01-16T05:51:21.080Z,97007.00
2024-01-16T05:56:42.880Z,96999.00
2024-01-16T06:02:04.421Z,97010.00
2024-01-16T06:07:25.928Z,97004.00
2024-01-16T06:12:47.499Z,97002.00
2024-01-16T06:18:10.398Z,97014.00
2024-01-16T06:23:31.897Z,97006.00
2024-01-16T06:28:53.518Z,97026.00
2024-01-16T06:34:15.081Z,97016.00
2024-01-16T06:39:37.513Z,97026.00
2024-01-16T06:44:59.304Z,97024.00
2024-01-16T06:50:20.960Z,97017.00
2024-01-16T06:55:42.431Z,97020.00
2024-01-16T07:01:05.466Z,97037.00
2024-01-16T07:06:27.240Z,97042.00
2024-01-16T07:11:49.569Z,97054.00
2024-01-16T07:17:11.068Z,97067.00
2024-01-16T07:22:32.547Z,97076.00
2024-01-16T07:27:54.144Z,97079.00
2024-01-16T07:33:15.988Z,97094.00
2024-01-16T07:38:37.772Z,97101.00
2024-01-16T07:43:59.297Z,97097.00
2024-01-16T07:49:20.828Z,97104.00
2024-01-16T07:54:42.364Z,97119.00
2024-01-16T08:00:04.766Z,97126.00
2024-01-16T08:05:29.065Z,97108.00
2024-01-16T08:10:50.801Z,97128.00
2024-01-16T08:16:12.616Z,97118.00
2024-01-16T08:21:33.889Z,97132.00
2024-01-16T08:26:58.596Z,97137.00
2024-01-16T08:32:23.198Z,97143.00
2024-01-16T08:37:44.814Z,97139.00
2024-01-16T08:43:06.551Z,97147.00
2024-01-16T08:48:28.179Z,97151.00
2024-01-16T08:53:50.079Z,97164.00
2024-01-16T08:59:11.790Z,97157.00
2024-01-16T09:04:33.276Z,97168.00
2024-01-16T09:09:55.142Z,97182.00
2024-01-16T09:15:16.838Z,97175.00
2024-01-16T09:20:38.226Z,97184.00
2024-01-16T09:25:59.823Z,97194.00
2024-01-16T09:31:21.362Z,97189.00
2024-01-16T09:36:42.871Z,97187.00
2024-01-16T09:42:05.087Z,97190.00
2024-01-16T09:47:26.859Z,97185.00
2024-01-16T09:52:49.217Z,97187.00
2024-01-16T09:58:15.717Z,97184.00
2024-01-16T10:03:37.579Z,97186.00
2024-01-16T10:09:00.647Z,97187.00
2024-01-16T10:14:22.639Z,97182.00
2024-01-16T10:19:54.529Z,97183.00
2024-01-16T10:25:21.346Z,97189.00
2024-01-16T10:30:42.952Z,97189.00
2024-01-16T10:36:13.702Z,97182.00
2024-01-16T10:41:35.391Z,97178.00
2024-01-16T10:47:13.321Z,97178.00
2024-01-16T10:52:36.930Z,97176.00
2024-01-16T10:58:01.879Z,97170.00
2024-01-16T11:03:29.545Z,97183.00
2024-01-16T11:08:52.941Z,97188.00
2024-01-16T11:14:18.432Z,97183.00
2024-01-16T11:19:49.667Z,97183.00
2024-01-16T11:25:22.253Z,97176.00
2024-01-16T11:30:45.447Z,97174.00
2024-01-16T11:36:26.835Z,97162.00
2024-01-16T11:41:55.536Z,97156.00
2024-01-16T11:47:19.516Z,97164.00
2024-01-16T11:52:46.042Z,97173.00
2024-01-16T11:58:19.460Z,97166.00
2024-01-16T12:03:40.912Z,97156.00
2024-01-16T12:09:32.053Z,97164.00
2024-01-16T12:14:54.910Z,97163.00
2024-01-16T12:20:21.401Z,97162.00
2024-01-16T12:26:01.441Z,97162.00
2024-01-16T12:31:25.813Z,97152.00
2024-01-16T12:36:47.144Z,97146.00
2024-01-16T12:42:11.002Z,97142.00
2024-01-16T12:47:32.613Z,97137.00
2024-01-16T12:53:11.858Z,97142.00
2024-01-16T12:58:37.505Z,97123.00
2024-01-16T13:04:04.436Z,97118.00
2024-01-16T13:09:27.571Z,97117.00
2024-01-16T13:14:49.133Z,97127.00
2024-01-16T13:20:11.648Z,97121.00
2024-01-16T13:25:33.506Z,97134.00
2024-01-16T13:30:55.150Z,97143.00
2024-01-16T13:36:18.482Z,97133.00
2024-01-16T13:41:45.816Z,97133.00
2024-01-16T13:47:11.662Z,97144.00
2024-01-16T13:52:37.156Z,97138.00
2024-01-16T13:57:59.523Z,97136.00
2024-01-16T14:03:22.388Z,97126.00
2024-01-16T14:08:44.464Z,97127.00
2024-01-16T14:14:06.515Z,97134.00
2024-01-16T14:19:28.824Z,97137.00
2024-01-16T14:24:52.370Z,97129.00
2024-01-16T14:30:16.530Z,97132.00
2024-01-16T14:35:39.215Z,97126.00
2024-01-16T14:41:00.717Z,97112.00
2024-01-16T14:46:24.385Z,97116.00
2024-01-16T14:51:46.447Z,97104.00
2024-01-16T14:57:08.504Z,97121.00
2024-01-16T15:02:30.452Z,97130.00
2024-01-16T15:07:55.443Z,97132.00
2024-01-16T15:13:17.047Z,97131.00
2024-01-16T15:18:38.869Z,97132.00
2024-01-16T15:24:00.765Z,97134.00
2024-01-16T15:29:22.395Z,97133.00
2024-01-16T15:34:44.011Z,97135.00
2024-01-16T15:40:08.079Z,97134.00
2024-01-16T15:45:29.829Z,97133.00
2024-01-16T15:51:13.607Z,97137.00
2024-01-16T15:56:35.118Z,97143.00
2024-01-16T16:01:57.068Z,97143.00
2024-01-16T16:07:19.778Z,97134.00
2024-01-16T16:12:41.531Z,97147.00
2024-01-16T16:18:03.509Z,97151.00
2024-01-16T16:23:25.281Z,97148.00
2024-01-16T16:28:46.815Z,97146.00
2024-01-16T16:34:15.859Z,97162.00
2024-01-16T16:39:37.602Z,97166.00
2024-01-16T16:45:00.492Z,97165.00
2024-01-16T16:50:22.069Z,97171.00
2024-01-16T16:55:43.563Z,97171.00
2024-01-16T17:01:05.534Z,97176.00
2024-01-16T17:06:27.361Z,97169.00
2024-01-16T17:11:49.216Z,97170.00
2024-01-16T17:17:12.489Z,97174.00
2024-01-16T17:22:34.293Z,97178.00
2024-01-16T17:27:55.888Z,97168.00
2024-01-16T17:33:17.860Z,97179.00
2024-01-16T17:38:42.877Z,97167.00
2024-01-16T17:44:05.585Z,97173.00
2024-01-16T17:49:27.035Z,97174.00
2024-01-16T17:54:48.578Z,97180.00
2024-01-16T18:00:11.000Z,97184.00
2024-01-16T18:05:34.290Z,97180.00
2024-01-16T18:10:56.546Z,97178.00
2024-01-16T18:16:18.776Z,97189.00
2024-01-16T18:21:40.274Z,97177.00
2024-01-16T18:27:01.823Z,97185.00
2024-01-16T18:32:23.401Z,97176.00
2024-01-16T18:37:45.076Z,97173.00
2024-01-16T18:43:09.030Z,97177.00
2024-01-16T18:48:31.149Z,97177.00
2024-01-16T18:53:53.770Z,97179.00
2024-01-16T18:59:15.388Z,97176.00
2024-01-16T19:04:38.202Z,97182.00
2024-01-16T19:10:03.196Z,97181.00
2024-01-16T19:15:24.608Z,97163.00
2024-01-16T19:20:46.229Z,97162.00
2024-01-16T19:26:09.641Z,97164.00
2024-01-16T19:31:35.483Z,97161.00
2024-01-16T19:36:57.199Z,97160.00
2024-01-16T19:42:18.667Z,97139.00
2024-01-16T19:47:42.125Z,97147.00
2024-01-16T19:53:04.197Z,97141.00
2024-01-16T19:58:25.717Z,97145.00
2024-01-16T20:03:47.334Z,97148.00
2024-01-16T20:09:09.086Z,97138.00
2024-01-16T20:14:30.774Z,97140.00
2024-01-16T20:19:52.334Z,97139.00
2024-01-16T20:25:14.099Z,97129.00
2024-01-16T20:30:37.240Z,97144.00
2024-01-16T20:35:58.860Z,97141.00
2024-01-16T20:41:20.465Z,97139.00
2024-01-16T20:46:42.162Z,97130.00
2024-01-16T20:52:03.893Z,97130.00
2024-01-16T20:57:25.673Z,97127.00
2024-01-16T21:02:47.328Z,97111.00
2024-01-16T21:08:11.305Z,97113.00
2024-01-16T21:13:33.277Z,97121.00
2024-01-16T21:18:54.830Z,97127.00
2024-01-16T21:24:16.361Z,97110.00
2024-01-16T21:29:40.233Z,97111.00
2024-01-16T21:35:02.081Z,97115.00
2024-01-16T21:40:23.757Z,97103.00
2024-01-16T21:45:45.390Z,97101.00
2024-01-16T21:51:06.880Z,97103.00
2024-01-16T21:56:29.276Z,97094.00
2024-01-16T22:01:50.644Z,97092.00
2024-01-16T22:07:12.279Z,97098.00
2024-01-16T22:12:34.384Z,97095.00
2024-01-16T22:17:58.081Z,97092.00
2024-01-16T22:23:19.797Z,97097.00
2024-01-16T22:28:47.169Z,97086.00
2024-01-16T22:34:09.007Z,97066.00
2024-01-16T22:39:30.567Z,97073.00
2024-01-16T22:44:52.244Z,97044.00
2024-01-16T22:50:13.904Z,97032.00
2024-01-16T22:55:35.943Z,97023.00
2024-01-16T23:00:57.439Z,97003.00
2024-01-16T23:06:22.424Z,96993.00
2024-01-16T23:11:44.142Z,96972.00
2024-01-16T23:17:05.869Z,96975.00
2024-01-16T23:22:28.221Z,96972.00
2024-01-16T23:27:50.942Z,96946.00
2024-01-16T23:33:12.747Z,96943.00
2024-01-16T23:38:37.454Z,96950.00
2024-01-16T23:43:58.884Z,96965.00
2024-01-16T23:49:22.138Z,96954.00
2024-01-16T23:54:43.667Z,96936.00
